Time;durP1;ratioP1;P1;durP2;ratioP2;P2;SDS_P1;SDS_P2;PMS_P1;PMS_P2;Temp;Humidity;BMP_temperature;BMP_pressure;BME280_temperature;BME280_humidity;BME280_pressure;Samples;Min_cycle;Max_cycle;Signal;HPM_P1;HPM_P2
2021/11/03 00:00:04;;;;;;;8.30;4.57;;;9.10;99.90;;;;;;5039533;28;20786;-68
2021/11/03 00:02:31;;;;;;;5.40;4.07;;;9.10;99.90;;;;;;5048100;23;20527;-69
2021/11/03 00:04:58;;;;;;;4.50;2.87;;;9.10;99.90;;;;;;5040429;28;20513;-64
2021/11/03 00:07:29;;;;;;;5.03;3.33;;;9.10;99.90;;;;;;5051960;23;20546;-70
2021/11/03 00:09:57;;;;;;;4.20;3.17;;;9.10;99.90;;;;;;5046807;28;20424;-69
2021/11/03 00:12:24;;;;;;;9.87;4.20;;;9.00;99.90;;;;;;5052250;23;20539;-62
2021/11/03 00:14:52;;;;;;;4.63;3.80;;;8.90;99.90;;;;;;5045531;28;20480;-70
2021/11/03 00:17:18;;;;;;;9.30;4.70;;;8.90;99.90;;;;;;5052895;23;20440;-61
2021/11/03 00:19:45;;;;;;;4.87;3.67;;;8.90;99.90;;;;;;5044542;28;20617;-57
2021/11/03 00:22:14;;;;;;;5.97;4.50;;;8.90;99.90;;;;;;5045500;28;20506;-69
2021/11/03 00:24:41;;;;;;;5.80;3.53;;;8.80;99.90;;;;;;5052484;23;20595;-69
2021/11/03 00:27:08;;;;;;;4.97;3.87;;;8.80;99.90;;;;;;5045627;28;20495;-70
2021/11/03 00:29:34;;;;;;;7.37;3.80;;;8.90;99.90;;;;;;5061219;23;20476;-66
2021/11/03 00:32:02;;;;;;;4.43;3.80;;;8.90;99.90;;;;;;5045369;28;20447;-62
2021/11/03 00:34:29;;;;;;;5.63;3.90;;;8.90;99.90;;;;;;5052438;23;20744;-61
2021/11/03 00:36:56;;;;;;;7.53;4.40;;;8.80;99.90;;;;;;5045297;28;20750;-65
2021/11/03 00:39:23;;;;;;;6.77;4.10;;;8.90;99.90;;;;;;5052334;23;20475;-66
2021/11/03 00:41:49;;;;;;;6.70;4.90;;;8.80;99.90;;;;;;5044592;28;20507;-67
2021/11/03 00:44:20;;;;;;;5.17;3.83;;;8.90;99.90;;;;;;5053326;23;20746;-66
2021/11/03 00:46:46;;;;;;;6.03;3.97;;;8.80;99.90;;;;;;5045109;28;20468;-61
2021/11/03 00:51:56;;;;;;;11.50;4.63;;;8.80;99.90;;;;;;5052467;23;20476;-65
2021/11/03 00:54:23;;;;;;;5.83;4.47;;;8.80;99.90;;;;;;5043844;28;20490;-64
2021/11/03 00:56:50;;;;;;;6.40;4.37;;;8.70;99.90;;;;;;5050962;23;20552;-67
2021/11/03 00:59:17;;;;;;;6.87;5.37;;;8.70;99.90;;;;;;5045268;28;20479;-69
2021/11/03 01:01:44;;;;;;;7.97;4.80;;;8.70;99.90;;;;;;5050943;23;20562;-69
2021/11/03 01:04:10;;;;;;;7.70;4.43;;;8.70;99.90;;;;;;5044032;28;20443;-69
2021/11/03 01:06:42;;;;;;;9.60;4.93;;;8.70;99.90;;;;;;5050686;23;20500;-70
2021/11/03 01:09:09;;;;;;;8.43;4.40;;;8.70;99.90;;;;;;5044199;28;20437;-63
2021/11/03 01:11:38;;;;;;;8.33;5.40;;;8.70;99.90;;;;;;5058602;23;20484;-68
2021/11/03 01:14:07;;;;;;;6.50;3.60;;;8.70;99.90;;;;;;5045094;28;20472;-68
2021/11/03 01:16:34;;;;;;;6.80;4.10;;;8.70;99.90;;;;;;5051029;23;20447;-65
2021/11/03 01:19:01;;;;;;;8.33;3.87;;;8.70;99.90;;;;;;5044956;28;20529;-57
2021/11/03 01:23:57;;;;;;;5.77;3.60;;;8.50;99.90;;;;;;5050534;23;20476;-67
2021/11/03 01:26:24;;;;;;;6.97;3.80;;;8.60;99.90;;;;;;5044882;28;20486;-69
2021/11/03 01:28:51;;;;;;;3.40;3.10;;;8.50;99.90;;;;;;5052202;23;20495;-69
2021/11/03 01:31:18;;;;;;;3.70;3.03;;;8.40;99.90;;;;;;5047013;28;20504;-62
2021/11/03 01:33:45;;;;;;;5.27;3.70;;;8.30;99.90;;;;;;5054540;23;20562;-64
2021/11/03 01:36:13;;;;;;;4.83;3.97;;;8.30;99.90;;;;;;5046098;28;20517;-67
2021/11/03 01:38:40;;;;;;;11.37;4.80;;;8.20;99.90;;;;;;5067307;23;21016;-69
2021/11/03 01:41:08;;;;;;;3.83;2.93;;;8.20;99.90;;;;;;5045274;28;20533;-72
2021/11/03 01:43:41;;;;;;;9.20;4.20;;;8.20;99.90;;;;;;5052653;23;20492;-61
2021/11/03 01:46:25;;;;;;;6.10;3.90;;;8.20;99.90;;;;;;5046762;28;20491;-69
2021/11/03 01:49:03;;;;;;;4.40;3.23;;;8.20;99.90;;;;;;5052408;23;20499;-63
2021/11/03 01:51:37;;;;;;;5.40;4.00;;;8.20;99.90;;;;;;5044962;28;20437;-60
2021/11/03 01:54:06;;;;;;;5.70;4.27;;;8.20;99.90;;;;;;5051458;23;20492;-68
2021/11/03 01:56:36;;;;;;;7.97;3.60;;;8.20;99.90;;;;;;5044220;28;20510;-60
2021/11/03 01:59:13;;;;;;;4.60;3.47;;;8.20;99.90;;;;;;5052119;23;20496;-71
2021/11/03 02:01:40;;;;;;;6.60;4.07;;;8.10;99.90;;;;;;5046142;28;20539;-70
2021/11/03 02:04:10;;;;;;;6.70;4.60;;;8.00;99.90;;;;;;5051610;23;20484;-70
2021/11/03 02:06:37;;;;;;;7.20;4.17;;;8.00;99.90;;;;;;5044884;28;20495;-64
2021/11/03 02:09:07;;;;;;;6.27;4.93;;;8.00;99.90;;;;;;5067057;23;20484;-58
2021/11/03 02:11:35;;;;;;;4.47;4.07;;;8.00;99.90;;;;;;5045186;28;20436;-62
2021/11/03 02:14:06;;;;;;;4.83;3.20;;;8.00;99.90;;;;;;5052234;23;20541;-70
2021/11/03 02:16:37;;;;;;;4.43;2.90;;;8.00;99.90;;;;;;5045147;28;20865;-63
2021/11/03 02:19:09;;;;;;;4.60;3.37;;;8.00;99.90;;;;;;5052615;23;20562;-70
2021/11/03 02:21:41;;;;;;;4.80;3.40;;;8.00;99.90;;;;;;5045891;28;20523;-62
2021/11/03 02:24:15;;;;;;;5.80;4.80;;;8.10;99.90;;;;;;5052098;23;20441;-64
2021/11/03 02:26:50;;;;;;;5.47;4.20;;;8.10;99.90;;;;;;5051773;23;20523;-68
2021/11/03 02:29:22;;;;;;;5.27;4.07;;;8.00;99.90;;;;;;5044593;28;20772;-61
2021/11/03 02:31:53;;;;;;;4.63;3.80;;;8.00;99.90;;;;;;5068365;23;20503;-68
2021/11/03 02:34:22;;;;;;;8.60;3.97;;;8.00;99.90;;;;;;5044279;28;20420;-67
2021/11/03 02:36:55;;;;;;;6.67;4.43;;;8.00;99.90;;;;;;5051564;23;20483;-69
2021/11/03 02:39:32;;;;;;;5.70;3.70;;;8.00;99.90;;;;;;5044423;28;20602;-58
2021/11/03 02:42:01;;;;;;;4.50;3.30;;;7.80;99.90;;;;;;5065402;23;20503;-67
2021/11/03 02:44:32;;;;;;;5.87;3.80;;;7.80;99.90;;;;;;5044720;28;20452;-69
2021/11/03 02:47:00;;;;;;;4.30;3.30;;;7.70;99.90;;;;;;5052007;23;20490;-69
2021/11/03 02:49:27;;;;;;;6.97;4.20;;;7.80;99.90;;;;;;5044771;28;20464;-61
2021/11/03 02:51:57;;;;;;;4.60;3.80;;;7.80;99.90;;;;;;5052248;23;20973;-65
2021/11/03 02:54:24;;;;;;;6.10;3.67;;;7.80;99.90;;;;;;5044843;28;20420;-69
2021/11/03 02:56:54;;;;;;;3.30;3.00;;;7.80;99.90;;;;;;5052923;23;20876;-69
2021/11/03 02:59:25;;;;;;;4.57;4.17;;;7.80;99.90;;;;;;5044850;28;20495;-61
2021/11/03 03:01:54;;;;;;;7.00;4.13;;;7.70;99.90;;;;;;5051346;23;20546;-65
2021/11/03 03:04:24;;;;;;;10.10;4.57;;;7.70;99.90;;;;;;5044966;28;20494;-68
2021/11/03 03:06:53;;;;;;;6.40;4.80;;;7.70;99.90;;;;;;5051524;23;20476;-69
2021/11/03 03:09:20;;;;;;;10.70;4.47;;;7.70;99.90;;;;;;5044955;28;20437;-61
2021/11/03 03:11:52;;;;;;;6.80;4.70;;;7.80;99.90;;;;;;5051677;23;20801;-67
2021/11/03 03:14:22;;;;;;;8.30;4.70;;;7.80;99.90;;;;;;5025130;28;20487;-65
2021/11/03 03:16:49;;;;;;;5.93;3.43;;;7.80;99.90;;;;;;5034389;23;20453;-46
2021/11/03 03:19:16;;;;;;;7.40;5.20;;;7.80;99.90;;;;;;5043534;28;20503;-68
2021/11/03 03:21:44;;;;;;;5.43;4.23;;;7.70;99.90;;;;;;5045175;28;20494;-69
2021/11/03 03:24:13;;;;;;;6.53;4.53;;;7.70;99.90;;;;;;5067123;23;20495;-69
2021/11/03 03:26:41;;;;;;;6.63;3.97;;;7.70;99.90;;;;;;5044854;28;20816;-69
2021/11/03 03:29:08;;;;;;;4.90;4.03;;;7.70;99.90;;;;;;5052084;23;20480;-64
2021/11/03 03:31:37;;;;;;;5.83;3.93;;;7.60;99.90;;;;;;5045088;28;20483;-63
2021/11/03 03:34:08;;;;;;;7.73;4.40;;;7.60;99.90;;;;;;5066901;23;20484;-69
2021/11/03 03:36:35;;;;;;;8.97;5.17;;;7.50;99.90;;;;;;5044494;28;20921;-69
2021/11/03 03:39:03;;;;;;;9.20;5.30;;;7.50;99.90;;;;;;5066554;23;20484;-63
2021/11/03 03:41:30;;;;;;;4.43;3.80;;;7.50;99.90;;;;;;5046983;28;20502;-63
2021/11/03 03:43:56;;;;;;;12.93;5.27;;;7.50;99.90;;;;;;5052761;23;20530;-69
2021/11/03 03:46:24;;;;;;;8.93;5.97;;;7.40;99.90;;;;;;5045150;28;20448;-69
2021/11/03 03:48:53;;;;;;;8.83;4.20;;;7.30;99.90;;;;;;5051461;23;20518;-69
2021/11/03 03:51:21;;;;;;;7.83;4.57;;;7.30;99.90;;;;;;5045078;28;20555;-67
2021/11/03 03:53:48;;;;;;;11.10;4.47;;;7.40;99.90;;;;;;5052246;23;20480;-69
2021/11/03 03:56:17;;;;;;;9.70;4.53;;;7.30;99.90;;;;;;5045360;28;20449;-64
2021/11/03 03:58:45;;;;;;;9.50;4.60;;;7.30;99.90;;;;;;5052135;23;20425;-67
2021/11/03 04:01:12;;;;;;;6.60;4.00;;;7.30;99.90;;;;;;5044992;28;20488;-68
2021/11/03 04:03:40;;;;;;;5.70;3.40;;;7.30;99.90;;;;;;5053639;23;20518;-67
2021/11/03 04:06:08;;;;;;;6.77;4.50;;;7.30;99.90;;;;;;5044578;28;20524;-69
2021/11/03 04:08:34;;;;;;;6.80;3.80;;;7.30;99.90;;;;;;5045820;28;20885;-57
2021/11/03 04:11:01;;;;;;;8.37;4.90;;;7.30;99.90;;;;;;5054058;23;20484;-66
2021/11/03 04:13:28;;;;;;;8.17;4.27;;;7.30;99.90;;;;;;5045535;28;20448;-68
2021/11/03 04:15:56;;;;;;;4.40;3.67;;;7.30;99.90;;;;;;5052787;23;20551;-67
2021/11/03 04:18:25;;;;;;;4.77;3.50;;;7.30;99.90;;;;;;5044724;28;20510;-65
2021/11/03 04:20:52;;;;;;;5.93;4.10;;;7.20;99.90;;;;;;5051462;23;20496;-68
2021/11/03 04:23:20;;;;;;;14.93;4.90;;;7.20;99.90;;;;;;5044755;28;20494;-68
2021/11/03 04:25:48;;;;;;;11.20;4.00;;;7.10;99.90;;;;;;5022027;23;1313399;-68
2021/11/03 04:28:15;;;;;;;6.60;4.90;;;7.10;99.90;;;;;;5046149;28;20440;-63
2021/11/03 04:30:43;;;;;;;6.67;4.30;;;7.00;99.90;;;;;;5053677;23;20526;-62
2021/11/03 04:33:10;;;;;;;12.80;5.77;;;6.90;99.90;;;;;;5045997;28;20506;-67
2021/11/03 04:35:38;;;;;;;9.00;5.03;;;6.90;99.90;;;;;;5067144;23;21068;-67
2021/11/03 04:38:05;;;;;;;7.60;5.20;;;6.90;99.90;;;;;;5045786;28;20444;-68
2021/11/03 04:40:33;;;;;;;5.87;4.70;;;6.90;99.90;;;;;;5051846;23;20542;-68
2021/11/03 04:42:59;;;;;;;8.97;3.97;;;6.90;99.90;;;;;;5045063;28;20495;-64
2021/11/03 04:45:27;;;;;;;10.47;5.63;;;6.90;99.90;;;;;;5052751;23;20448;-54
2021/11/03 04:47:54;;;;;;;6.40;3.70;;;6.80;99.90;;;;;;5047026;28;20491;-67
2021/11/03 04:53:05;;;;;;;5.97;4.30;;;6.70;99.90;;;;;;5069642;23;20569;-66
2021/11/03 04:55:33;;;;;;;7.40;4.03;;;6.80;99.90;;;;;;5049772;28;20464;-67
2021/11/03 04:58:00;;;;;;;7.10;4.20;;;6.70;99.90;;;;;;5056912;23;20475;-67
2021/11/03 05:00:30;;;;;;;6.73;4.77;;;6.70;99.90;;;;;;5049027;28;20478;-69
2021/11/03 05:03:01;;;;;;;6.30;4.40;;;6.70;99.90;;;;;;5055928;23;20487;-68
2021/11/03 05:05:28;;;;;;;5.83;3.33;;;6.80;99.90;;;;;;5048820;28;20432;-68
2021/11/03 05:07:55;;;;;;;5.70;4.30;;;6.80;99.90;;;;;;5069925;23;20495;-68
2021/11/03 05:10:23;;;;;;;7.27;4.47;;;6.80;99.90;;;;;;5049603;28;20491;-67
2021/11/03 05:12:51;;;;;;;6.00;4.17;;;6.80;99.90;;;;;;5056213;23;20521;-66
2021/11/03 05:15:18;;;;;;;7.07;4.43;;;6.80;99.90;;;;;;5049526;28;20797;-64
2021/11/03 05:17:44;;;;;;;8.53;5.53;;;6.80;99.90;;;;;;5055716;23;20483;-67
2021/11/03 05:20:12;;;;;;;7.60;4.87;;;6.80;99.90;;;;;;5049007;28;20479;-68
2021/11/03 05:22:38;;;;;;;6.07;4.93;;;6.90;99.90;;;;;;5055147;23;20549;-67
2021/11/03 05:25:06;;;;;;;8.17;5.53;;;6.80;99.90;;;;;;5048050;28;20428;-66
2021/11/03 05:27:33;;;;;;;7.13;5.37;;;6.80;99.90;;;;;;5055354;23;20487;-68
2021/11/03 05:30:01;;;;;;;9.20;4.90;;;6.80;99.90;;;;;;5049294;28;20452;-69
2021/11/03 05:32:28;;;;;;;7.57;5.00;;;6.80;99.90;;;;;;5055985;23;20479;-65
2021/11/03 05:34:57;;;;;;;9.53;4.60;;;6.80;99.90;;;;;;5050503;28;20502;-67
2021/11/03 05:37:24;;;;;;;7.90;5.20;;;6.80;99.90;;;;;;5056126;23;20440;-67
2021/11/03 05:39:50;;;;;;;7.33;4.63;;;6.70;99.90;;;;;;5028448;28;20575;-68
2021/11/03 05:42:17;;;;;;;8.47;5.50;;;6.70;99.90;;;;;;5028996;28;20507;-64
2021/11/03 05:44:44;;;;;;;6.43;4.70;;;6.60;99.90;;;;;;5029166;28;20441;-67
2021/11/03 05:47:24;;;;;;;11.87;5.47;;;6.60;99.90;;;;;;5029226;28;20450;-65
2021/11/03 05:49:56;;;;;;;5.60;4.23;;;6.50;99.90;;;;;;5029775;28;20433;-64
2021/11/03 05:52:25;;;;;;;6.47;4.00;;;6.50;99.90;;;;;;5029525;28;20429;-65
2021/11/03 05:54:52;;;;;;;8.53;5.90;;;6.50;99.90;;;;;;5029680;28;20460;-62
2021/11/03 05:57:22;;;;;;;8.07;4.17;;;6.50;99.90;;;;;;5030305;28;20483;-65
2021/11/03 05:59:51;;;;;;;5.00;4.30;;;6.50;99.90;;;;;;5030234;28;20541;-67
2021/11/03 06:02:20;;;;;;;6.20;4.37;;;6.50;99.90;;;;;;5030124;28;20473;-67
2021/11/03 06:04:46;;;;;;;7.63;4.60;;;6.50;99.90;;;;;;5030043;28;20449;-68
2021/11/03 06:07:14;;;;;;;8.10;5.37;;;6.50;99.90;;;;;;5030344;28;20453;-67
2021/11/03 06:09:45;;;;;;;6.70;5.53;;;6.60;99.90;;;;;;5030245;28;20433;-67
2021/11/03 06:12:13;;;;;;;8.40;5.70;;;6.60;99.90;;;;;;5022082;28;20449;-64
2021/11/03 06:14:40;;;;;;;9.40;6.07;;;6.50;99.90;;;;;;5034404;23;20488;-68
2021/11/03 06:17:07;;;;;;;6.57;5.63;;;6.50;99.90;;;;;;5040771;28;20478;-67
2021/11/03 06:22:04;;;;;;;9.20;4.83;;;6.50;99.90;;;;;;5052924;23;20488;-68
2021/11/03 06:24:34;;;;;;;9.20;6.17;;;6.60;99.90;;;;;;5044220;28;20463;-68
2021/11/03 06:27:03;;;;;;;8.57;5.57;;;6.60;99.90;;;;;;5047290;23;20503;-66
2021/11/03 06:29:32;;;;;;;7.83;4.70;;;6.60;99.90;;;;;;5040381;28;20476;-66
2021/11/03 06:31:59;;;;;;;11.37;6.47;;;6.70;99.90;;;;;;5048103;23;20488;-63
2021/11/03 06:34:26;;;;;;;8.90;6.30;;;6.70;99.90;;;;;;5047310;28;20424;-70
2021/11/03 06:36:53;;;;;;;8.10;4.53;;;6.70;99.90;;;;;;5057543;28;20424;-62
2021/11/03 06:39:21;;;;;;;12.87;6.67;;;6.70;99.90;;;;;;5057650;28;20456;-59
2021/11/03 06:41:49;;;;;;;13.80;6.47;;;6.70;99.90;;;;;;5057679;28;20480;-57
2021/11/03 06:44:17;;;;;;;9.80;5.60;;;6.70;99.90;;;;;;5057513;28;20436;-61
2021/11/03 06:46:44;;;;;;;8.47;6.00;;;6.60;99.90;;;;;;5054000;28;20452;-64
2021/11/03 06:49:13;;;;;;;12.03;6.13;;;6.70;99.90;;;;;;5041351;28;20518;-64
2021/11/03 06:51:40;;;;;;;8.77;6.23;;;6.70;99.90;;;;;;5040462;28;20468;-70
2021/11/03 06:54:07;;;;;;;7.33;5.40;;;6.70;99.90;;;;;;5037562;28;20843;-64
2021/11/03 06:56:35;;;;;;;7.00;5.90;;;6.80;99.90;;;;;;5043284;23;20536;-62
2021/11/03 06:59:03;;;;;;;13.17;8.17;;;6.80;99.90;;;;;;5036315;28;20428;-66
2021/11/03 07:01:30;;;;;;;9.43;5.40;;;6.90;99.90;;;;;;5044227;23;20484;-67
2021/11/03 07:03:58;;;;;;;8.80;5.60;;;7.00;99.90;;;;;;5039461;28;20432;-72
2021/11/03 07:06:25;;;;;;;13.90;6.67;;;7.00;99.90;;;;;;5037342;28;20518;-71
2021/11/03 07:08:54;;;;;;;10.03;6.07;;;7.10;99.90;;;;;;5043482;23;20490;-69
2021/11/03 07:11:22;;;;;;;10.50;6.00;;;7.10;99.90;;;;;;5036631;28;20479;-67
2021/11/03 07:13:51;;;;;;;6.83;5.17;;;7.10;99.90;;;;;;5043764;23;20814;-69
2021/11/03 07:16:17;;;;;;;10.80;6.33;;;7.10;99.90;;;;;;5035879;28;20846;-73
2021/11/03 07:18:44;;;;;;;7.83;5.00;;;7.20;99.90;;;;;;5045539;23;20488;-77
2021/11/03 07:21:11;;;;;;;10.90;5.87;;;7.30;99.90;;;;;;5038662;28;20494;-74
2021/11/03 07:23:38;;;;;;;8.10;6.30;;;7.40;99.90;;;;;;5043941;23;20484;-74
2021/11/03 07:26:07;;;;;;;6.80;4.77;;;7.40;99.90;;;;;;5036571;28;20463;-72
2021/11/03 07:28:35;;;;;;;12.70;6.03;;;7.50;99.90;;;;;;5036391;28;20862;-74
2021/11/03 07:31:04;;;;;;;9.93;5.27;;;7.50;99.90;;;;;;5035941;28;20923;-72
2021/11/03 07:33:31;;;;;;;10.13;5.33;;;7.40;99.90;;;;;;5043515;23;20520;-76
2021/11/03 07:35:59;;;;;;;8.07;5.53;;;7.50;99.90;;;;;;5037228;28;20887;-75
2021/11/03 07:38:25;;;;;;;11.47;6.83;;;7.60;99.90;;;;;;5043000;23;21140;-68
2021/11/03 07:40:55;;;;;;;8.20;5.30;;;7.70;99.90;;;;;;5034218;28;20534;-71
2021/11/03 07:43:25;;;;;;;9.00;5.20;;;7.80;99.90;;;;;;5043500;23;20565;-78
2021/11/03 07:45:54;;;;;;;8.57;4.93;;;7.80;99.90;;;;;;5015121;28;20532;-77
2021/11/03 07:50:53;;;;;;;14.63;5.40;;;7.90;99.90;;;;;;5039385;23;20480;-65
2021/11/03 07:53:22;;;;;;;9.70;5.80;;;8.00;99.90;;;;;;5035157;28;20468;-73
2021/11/03 07:55:53;;;;;;;8.90;6.30;;;8.00;99.90;;;;;;5041986;23;20494;-72
2021/11/03 07:58:22;;;;;;;14.97;6.57;;;8.10;99.90;;;;;;5034514;28;20436;-71
2021/11/03 08:00:50;;;;;;;7.77;5.30;;;8.10;99.90;;;;;;5041625;23;20492;-69
2021/11/03 08:03:17;;;;;;;6.00;4.73;;;8.20;99.90;;;;;;5034232;28;20974;-66
2021/11/03 08:05:43;;;;;;;8.50;5.67;;;8.30;99.90;;;;;;5027761;23;20512;-68
2021/11/03 08:08:14;;;;;;;4.67;3.83;;;8.40;99.90;;;;;;5015289;28;20812;-71
2021/11/03 08:10:43;;;;;;;6.90;4.70;;;8.40;99.90;;;;;;5034574;23;20495;-68
2021/11/03 08:13:14;;;;;;;10.60;5.53;;;8.40;99.90;;;;;;5034216;28;20921;-69
2021/11/03 08:15:41;;;;;;;6.33;4.30;;;8.40;99.90;;;;;;5041675;28;20444;-68
2021/11/03 08:18:09;;;;;;;13.70;5.20;;;8.40;99.90;;;;;;5038000;28;20448;-66
2021/11/03 08:20:37;;;;;;;6.97;5.00;;;8.30;99.90;;;;;;5040024;28;20484;-67
2021/11/03 08:23:04;;;;;;;7.20;5.03;;;8.30;99.90;;;;;;5039881;28;20448;-65
2021/11/03 08:25:33;;;;;;;11.60;6.43;;;8.40;99.90;;;;;;5036889;28;20464;-68
2021/11/03 08:28:03;;;;;;;9.53;6.67;;;8.50;99.90;;;;;;5042787;28;20452;-70
2021/11/03 08:30:29;;;;;;;10.83;5.10;;;8.50;99.90;;;;;;5039604;28;20490;-65
2021/11/03 08:32:59;;;;;;;10.00;4.70;;;8.50;99.90;;;;;;5040547;28;20519;-63
2021/11/03 08:35:27;;;;;;;15.20;6.10;;;8.60;99.90;;;;;;5040335;28;20471;-64
2021/11/03 08:37:59;;;;;;;7.13;5.00;;;8.70;99.90;;;;;;5040400;28;20474;-69
2021/11/03 08:40:27;;;;;;;6.97;5.47;;;8.70;99.90;;;;;;5039825;28;20794;-62
2021/11/03 08:43:00;;;;;;;7.90;6.27;;;8.70;99.90;;;;;;5039895;28;20501;-68
2021/11/03 08:45:27;;;;;;;9.27;6.50;;;8.80;99.90;;;;;;5040819;28;20487;-69
2021/11/03 08:47:54;;;;;;;8.00;6.07;;;8.80;99.90;;;;;;5041011;28;20485;-72
2021/11/03 08:50:24;;;;;;;8.43;5.70;;;8.90;99.90;;;;;;5040896;28;20533;-71
2021/11/03 08:52:52;;;;;;;12.20;5.47;;;9.00;99.90;;;;;;5042050;28;20478;-72
2021/11/03 08:55:19;;;;;;;11.60;7.13;;;9.10;99.90;;;;;;5041487;28;20575;-72
2021/11/03 08:57:46;;;;;;;12.30;6.10;;;9.20;99.90;;;;;;5040470;28;20574;-67
2021/11/03 09:00:21;;;;;;;15.77;5.77;;;9.30;99.90;;;;;;5039358;28;20479;-69
2021/11/03 09:02:49;;;;;;;19.53;6.13;;;9.40;99.90;;;;;;5039331;28;20454;-69
2021/11/03 09:05:15;;;;;;;10.73;5.80;;;9.50;99.90;;;;;;5039317;28;20468;-70
2021/11/03 09:07:44;;;;;;;13.13;6.40;;;9.60;99.90;;;;;;5046815;23;20488;-69
2021/11/03 09:10:14;;;;;;;10.77;5.70;;;9.50;99.90;;;;;;5044736;28;20460;-69
2021/11/03 09:12:41;;;;;;;12.07;6.50;;;9.70;99.90;;;;;;5046608;23;20961;-72
2021/11/03 09:15:08;;;;;;;11.77;6.60;;;9.80;99.90;;;;;;5044324;28;20444;-69
2021/11/03 09:17:37;;;;;;;10.40;7.33;;;9.90;99.90;;;;;;5042998;28;20470;-68
2021/11/03 09:20:06;;;;;;;9.87;5.80;;;10.10;99.90;;;;;;5040434;28;20444;-68
2021/11/03 09:22:34;;;;;;;7.20;4.83;;;10.30;99.90;;;;;;5040115;28;20479;-70
2021/11/03 09:25:01;;;;;;;12.00;6.53;;;10.50;99.90;;;;;;5039845;28;20836;-71
2021/11/03 09:27:27;;;;;;;7.97;5.57;;;10.70;99.90;;;;;;5039179;28;20974;-62
2021/11/03 09:29:55;;;;;;;13.10;6.27;;;10.90;99.90;;;;;;5038420;28;20481;-70
2021/11/03 09:34:52;;;;;;;9.90;5.30;;;11.00;99.90;;;;;;5039048;28;20476;-68
2021/11/03 09:37:23;;;;;;;14.93;6.33;;;11.10;99.90;;;;;;5040552;28;20885;-63
2021/11/03 09:39:51;;;;;;;6.87;5.60;;;11.10;99.90;;;;;;5040793;28;20471;-68
2021/11/03 09:42:20;;;;;;;12.00;6.90;;;11.30;99.90;;;;;;5040850;28;20579;-62
2021/11/03 09:44:50;;;;;;;14.83;6.03;;;11.60;99.90;;;;;;5040737;28;20452;-64
2021/11/03 09:47:22;;;;;;;8.33;5.40;;;12.00;99.90;;;;;;5040719;28;20476;-63
2021/11/03 09:49:58;;;;;;;10.13;5.70;;;12.40;99.90;;;;;;5039690;28;20518;-65
2021/11/03 09:52:30;;;;;;;8.30;5.87;;;12.70;99.90;;;;;;5039594;28;20470;-64
2021/11/03 09:55:01;;;;;;;7.67;4.83;;;13.00;99.90;;;;;;5040426;28;20967;-65
2021/11/03 09:57:34;;;;;;;7.67;4.83;;;13.20;99.90;;;;;;5039338;28;20480;-60
2021/11/03 10:00:13;;;;;;;6.73;4.20;;;13.20;99.90;;;;;;5039680;28;20425;-68
2021/11/03 10:02:49;;;;;;;8.57;6.60;;;13.20;99.90;;;;;;5038976;28;20491;-60
2021/11/03 10:05:25;;;;;;;9.37;5.47;;;13.20;99.90;;;;;;5039468;28;20428;-66
2021/11/03 10:07:57;;;;;;;7.00;5.40;;;13.20;99.90;;;;;;5019380;28;20477;-60
2021/11/03 10:10:31;;;;;;;7.43;5.20;;;13.20;99.90;;;;;;5038388;23;20480;-66
2021/11/03 10:12:59;;;;;;;9.40;5.23;;;13.20;99.90;;;;;;5039832;28;20525;-66
2021/11/03 10:15:27;;;;;;;9.47;5.77;;;13.20;99.90;;;;;;5046085;23;20495;-63
2021/11/03 10:18:19;;;;;;;8.97;7.90;;;13.30;99.90;;;;;;5039334;28;20961;-65
2021/11/03 10:21:00;;;;;;;7.27;4.70;;;13.30;99.90;;;;;;5046598;23;20484;-62
2021/11/03 10:23:31;;;;;;;9.23;5.23;;;13.30;99.90;;;;;;5039473;28;20459;-58
2021/11/03 10:26:02;;;;;;;6.80;4.50;;;13.30;99.90;;;;;;5045845;23;20495;-63
2021/11/03 10:28:40;;;;;;;8.30;5.83;;;13.20;99.90;;;;;;5039479;28;20432;-63
2021/11/03 10:31:21;;;;;;;7.73;6.03;;;13.10;99.90;;;;;;5046028;23;20487;-62
2021/11/03 10:33:49;;;;;;;8.13;5.37;;;13.10;99.90;;;;;;5038967;28;20542;-62
2021/11/03 10:36:20;;;;;;;7.50;5.23;;;13.00;99.90;;;;;;5046293;23;20542;-58
2021/11/03 10:38:56;;;;;;;7.40;5.60;;;12.90;99.90;;;;;;5038650;28;20472;-64
2021/11/03 10:41:27;;;;;;;5.53;3.93;;;12.80;99.90;;;;;;5053541;23;20499;-65
2021/11/03 10:44:05;;;;;;;8.00;5.67;;;12.80;99.90;;;;;;5039521;28;20456;-64
2021/11/03 10:46:38;;;;;;;15.20;6.40;;;12.60;99.90;;;;;;5046019;23;20492;-63
2021/11/03 10:49:19;;;;;;;9.10;5.60;;;12.60;99.90;;;;;;5038758;28;20456;-62
2021/11/03 10:51:59;;;;;;;4.80;3.90;;;12.60;99.90;;;;;;5060830;23;20496;-61
2021/11/03 10:54:38;;;;;;;8.70;4.37;;;12.70;99.90;;;;;;5039021;28;20428;-61
2021/11/03 10:57:18;;;;;;;5.40;3.83;;;12.80;99.90;;;;;;5045624;23;20484;-60
2021/11/03 10:59:49;;;;;;;8.80;4.70;;;12.90;99.90;;;;;;5038844;28;20460;-61
2021/11/03 11:02:23;;;;;;;6.40;4.50;;;13.00;99.90;;;;;;5045622;23;20492;-58
2021/11/03 11:04:51;;;;;;;7.13;4.20;;;12.90;99.90;;;;;;5038602;28;20452;-56
2021/11/03 11:07:26;;;;;;;6.70;4.27;;;12.70;99.90;;;;;;5045309;23;20810;-60
2021/11/03 11:09:58;;;;;;;7.23;4.93;;;12.70;99.90;;;;;;5038487;28;20877;-60
2021/11/03 11:12:29;;;;;;;6.90;4.77;;;12.70;99.90;;;;;;5045134;23;20506;-63
2021/11/03 11:14:57;;;;;;;6.17;4.40;;;12.80;99.90;;;;;;5038596;28;20459;-61
2021/11/03 11:17:30;;;;;;;5.07;4.23;;;12.70;99.90;;;;;;5045508;23;20488;-62
2021/11/03 11:20:09;;;;;;;24.40;6.07;;;12.70;99.90;;;;;;5038520;28;20432;-62
2021/11/03 11:22:55;;;;;;;7.27;4.90;;;12.80;99.90;;;;;;5045569;23;20491;-62
2021/11/03 11:25:26;;;;;;;7.60;4.80;;;12.90;99.90;;;;;;5038884;28;20765;-62
2021/11/03 11:28:05;;;;;;;7.47;4.67;;;13.00;99.90;;;;;;5068116;23;20488;-63
2021/11/03 11:30:43;;;;;;;6.67;4.20;;;13.10;99.90;;;;;;5018322;28;20813;-64
2021/11/03 11:33:17;;;;;;;7.23;4.87;;;13.00;99.90;;;;;;5026804;23;20467;-63
2021/11/03 11:35:53;;;;;;;9.13;4.87;;;13.00;99.90;;;;;;5038373;28;20497;-64
2021/11/03 11:38:27;;;;;;;8.17;5.47;;;13.00;99.90;;;;;;5045499;23;20429;-63
2021/11/03 11:41:02;;;;;;;7.20;5.10;;;12.90;99.90;;;;;;5018802;28;20456;-63
2021/11/03 11:45:55;;;;;;;7.07;4.73;;;13.00;99.90;;;;;;5023223;23;20495;-63
2021/11/03 11:51:10;;;;;;;4.83;3.87;;;12.90;99.90;;;;;;5044977;23;20949;-63
2021/11/03 11:56:23;;;;;;;5.90;3.33;;;12.80;99.90;;;;;;5045007;23;20526;-65
2021/11/03 12:01:29;;;;;;;7.03;4.00;;;12.80;99.90;;;;;;5052219;23;20579;-64
2021/11/03 12:04:23;;;;;;;5.63;3.80;;;12.80;99.90;;;;;;5038782;28;20511;-63
2021/11/03 12:07:15;;;;;;;9.00;4.60;;;12.90;99.90;;;;;;5045121;23;20836;-60
2021/11/03 12:10:04;;;;;;;5.40;3.90;;;12.90;99.90;;;;;;5037136;28;21007;-62
2021/11/03 12:12:34;;;;;;;5.93;3.87;;;12.80;99.90;;;;;;5044453;23;20496;-62
2021/11/03 12:15:02;;;;;;;5.00;3.67;;;12.80;99.90;;;;;;5037245;28;20479;-62
2021/11/03 12:17:42;;;;;;;6.37;3.07;;;12.80;99.90;;;;;;5044339;23;20679;-61
2021/11/03 12:23:50;;;;;;;4.30;3.20;;;12.80;99.90;;;;;;5044553;23;20582;-63
2021/11/03 12:26:41;;;;;;;5.03;3.40;;;12.80;99.90;;;;;;5044056;23;20514;-62
2021/11/03 12:29:34;;;;;;;5.33;4.30;;;12.90;99.90;;;;;;5034571;28;20472;-58
2021/11/03 12:34:36;;;;;;;8.07;4.27;;;13.00;99.90;;;;;;5042619;23;20937;-63
2021/11/03 12:39:57;;;;;;;3.77;2.50;;;13.10;99.90;;;;;;5045103;23;20475;-61
2021/11/03 12:44:57;;;;;;;4.80;3.43;;;13.30;99.90;;;;;;5043106;23;20978;-60
2021/11/03 12:47:29;;;;;;;3.90;3.50;;;13.40;99.90;;;;;;5038000;28;20779;-60
2021/11/03 12:50:05;;;;;;;7.73;3.83;;;13.50;99.90;;;;;;5044549;23;20587;-62
2021/11/03 12:52:33;;;;;;;5.53;2.97;;;13.50;99.90;;;;;;5037277;28;20458;-59
2021/11/03 12:55:02;;;;;;;3.10;2.80;;;13.50;99.90;;;;;;5043140;23;20492;-60
2021/11/03 12:57:29;;;;;;;3.47;2.93;;;13.60;99.90;;;;;;5036761;28;20479;-63
2021/11/03 13:00:04;;;;;;;6.83;4.07;;;13.60;99.90;;;;;;5043909;23;20969;-62
2021/11/03 13:02:33;;;;;;;4.27;2.67;;;13.50;99.90;;;;;;5036824;28;20474;-63
2021/11/03 13:05:04;;;;;;;3.33;2.60;;;13.40;99.90;;;;;;5050777;23;20491;-61
2021/11/03 13:07:39;;;;;;;4.23;3.30;;;13.30;99.90;;;;;;5037145;28;20826;-62
2021/11/03 13:10:16;;;;;;;4.40;3.30;;;13.20;99.90;;;;;;5044022;23;20848;-62
2021/11/03 13:12:53;;;;;;;3.50;2.70;;;13.20;99.90;;;;;;5037444;28;20443;-61
2021/11/03 13:15:26;;;;;;;2.97;2.67;;;13.20;99.90;;;;;;5047484;23;20491;-61
2021/11/03 13:17:56;;;;;;;3.50;2.17;;;13.10;99.90;;;;;;5041160;28;20827;-61
2021/11/03 13:20:29;;;;;;;4.10;2.77;;;13.10;99.90;;;;;;5047855;23;20523;-61
2021/11/03 13:22:56;;;;;;;3.80;2.53;;;13.10;99.90;;;;;;5040334;28;20480;-61
2021/11/03 13:25:27;;;;;;;5.23;3.67;;;13.00;99.90;;;;;;5046146;23;20567;-59
2021/11/03 13:27:55;;;;;;;7.33;2.53;;;13.00;99.90;;;;;;5040262;28;20437;-61
2021/11/03 13:30:27;;;;;;;4.40;2.30;;;13.00;99.90;;;;;;5061404;23;20452;-57
2021/11/03 13:32:58;;;;;;;7.60;3.17;;;13.00;99.90;;;;;;5040154;28;20441;-61
2021/11/03 13:35:28;;;;;;;3.53;2.80;;;13.00;99.90;;;;;;5048285;23;20546;-57
2021/11/03 13:37:57;;;;;;;5.10;2.60;;;13.00;99.90;;;;;;5039619;28;20975;-61
2021/11/03 13:43:15;;;;;;;6.53;3.60;;;12.90;99.90;;;;;;5046736;23;20526;-61
2021/11/03 13:48:28;;;;;;;4.30;3.07;;;12.90;99.90;;;;;;5044673;23;20483;-62